Huvudsida
METAR-TAF:

METAR-TAF

Flygplatser :

Mehrabads flygplats

Teheran, Iran

latitud: 35-41N, longitud: 051-21E, höjd: 1204 m

Aktuellt väderrapport

Denna rapport gjordes för 12 minuter sedan, klockan 23:30 UTC
Stilla vind
Temperatur 30°C
Fuktighet 15%
Tryck 1005 hPa
Sikt 10 km eller mer
Spridda moln på en höjd av 10000 ft

METAR: OIII 222330Z 00000KT 9999 SCT100 30/01 Q1005 A2969

Tid: 04:12 (23:42 UTC)

Väderprognos

Denna rapport gjordes för 42 minuter sedan, klockan 23:00 UTC
Prognos gäller från 23 kl. 00 UTC till 24 kl. 06 UTC
Vind 8 kt från nordost
Sikt: 8000 m
Spridda moln på en höjd av 10000 ft
Temporärt
från 23 kl. 07 UTC till 23 kl. 15 UTC
Vind 17 kt från ost/sydost

TAF: OIII 222300Z 2300/2406 04004MPS 8000 SCT100 TEMPO 2307/2315 12009MPS

Aktuella väderrapporter och prognoser från 4000 flygplatser (METAR- och TAF-rapporter).

De tillgängliga stationerna syns som gula och röda prickar på kartan.

För musen över prickarna för att se namnen på stationerna.

Klicka sedan för att få väderrapporter och prognoser.

För att ändra kartan: Klicka på de gröna knapparna med ett svart kors på för att zooma in; den gröna knappen med ett streck på för att zooma ut; eller på de gröna pilarna för angränsande kartor.


METAR-TAF: